createdAt,value
2019-04-21T04:02:35.146Z,24.00
2019-04-21T04:05:29.832Z,32.00
2019-04-21T04:07:22.921Z,44.00
2019-04-21T04:08:23.091Z,48.00
2019-04-21T04:10:08.369Z,68.00
2019-04-21T04:11:12.060Z,76.00
2019-04-21T04:12:57.680Z,96.00
2019-04-21T04:15:56.583Z,132.00
2019-04-21T04:18:53.249Z,176.00
2019-04-21T04:21:41.500Z,228.00
2019-04-21T04:22:45.513Z,252.00
2019-04-21T04:25:27.861Z,312.00
2019-04-21T04:28:33.115Z,392.00
2019-04-21T04:30:25.344Z,444.00
2019-04-21T04:31:25.442Z,476.00
2019-04-21T04:33:08.029Z,532.00
2019-04-21T04:37:05.423Z,664.00
2019-04-21T04:39:02.729Z,732.00
2019-04-21T04:40:00.582Z,772.00
2019-04-21T04:41:53.314Z,848.00
2019-04-21T04:45:41.719Z,1008.00
2019-04-21T04:48:28.038Z,1136.00
2019-04-21T04:50:29.966Z,1212.00
2019-04-21T04:51:36.485Z,1256.00
2019-04-21T04:53:20.332Z,1340.00
2019-04-21T04:54:21.745Z,1384.00
2019-04-21T04:56:12.485Z,1468.00
2019-04-21T04:57:21.780Z,1516.00
2019-04-21T05:00:15.467Z,1648.00
2019-04-21T05:02:02.368Z,1732.00
2019-04-21T05:04:59.002Z,1860.00
2019-04-21T05:05:49.671Z,1900.00
2019-04-21T05:07:55.417Z,1976.00
2019-04-21T05:08:56.021Z,2020.00
2019-04-21T05:10:57.388Z,2096.00
2019-04-21T05:13:21.885Z,2204.00
2019-04-21T05:14:21.277Z,2244.00
2019-04-21T05:16:32.019Z,2324.00
2019-04-21T05:17:30.930Z,2364.00
2019-04-21T05:19:22.889Z,2444.00
2019-04-21T05:22:03.504Z,2560.00
2019-04-21T05:22:59.755Z,2600.00
2019-04-21T05:24:44.011Z,2680.00
2019-04-21T05:25:41.549Z,2724.00
2019-04-21T05:27:34.678Z,2792.00
2019-04-21T05:28:32.691Z,2828.00
2019-04-21T05:30:47.648Z,2896.00
2019-04-21T05:31:38.813Z,2936.00
2019-04-21T05:33:26.973Z,2996.00
2019-04-21T05:34:27.610Z,3028.00
2019-04-21T05:36:20.527Z,3084.00
2019-04-21T05:37:23.263Z,3116.00
2019-04-21T05:39:10.653Z,3172.00
2019-04-21T05:40:07.536Z,3200.00
2019-04-21T05:41:53.753Z,3260.00
2019-04-21T05:43:03.388Z,3288.00
2019-04-21T05:45:01.615Z,3352.00
2019-04-21T05:46:02.621Z,3380.00
2019-04-21T05:47:57.584Z,3452.00
2019-04-21T05:48:48.374Z,3484.00
2019-04-21T05:50:38.122Z,3560.00
2019-04-21T05:51:41.103Z,3596.00
2019-04-21T05:53:40.521Z,3648.00
2019-04-21T05:56:31.847Z,3748.00
2019-04-21T05:57:32.242Z,3780.00
2019-04-21T05:59:22.042Z,3860.00
2019-04-21T06:00:35.225Z,3896.00
2019-04-21T06:03:15.124Z,3992.00
2019-04-21T06:06:14.106Z,4068.00
2019-04-21T06:08:02.360Z,4120.00
2019-04-21T06:09:04.961Z,4148.00
2019-04-21T06:10:52.393Z,4220.00
2019-04-21T06:11:51.251Z,4248.00
2019-04-21T06:13:48.805Z,4312.00
2019-04-21T06:14:48.428Z,4344.00
2019-04-21T06:16:43.005Z,4404.00
2019-04-21T06:19:36.579Z,4504.00
2019-04-21T06:20:30.693Z,4524.00
2019-04-21T06:22:22.423Z,4576.00
2019-04-21T06:23:28.697Z,4608.00
2019-04-21T06:26:44.936Z,4688.00
2019-04-21T06:28:14.424Z,4752.00
2019-04-21T06:29:04.253Z,4788.00
2019-04-21T06:33:53.748Z,4940.00
2019-04-21T06:36:49.590Z,5036.00
2019-04-21T06:39:54.122Z,5272.00
2019-04-21T06:40:42.496Z,5424.00
2019-04-21T06:42:27.033Z,5716.00
2019-04-21T06:43:37.743Z,5920.00
2019-04-21T06:45:27.581Z,6596.00
2019-04-21T06:46:30.196Z,7408.00
2019-04-21T06:48:21.013Z,11188.00
2019-04-21T06:49:31.359Z,18752.00
2019-04-21T06:51:10.718Z,30816.00
2019-04-21T06:52:18.017Z,30976.00
2019-04-21T06:55:12.558Z,31392.00
2019-04-21T06:56:51.282Z,31680.00
2019-04-21T06:57:55.891Z,31936.00
2019-04-21T06:59:43.387Z,32512.00
2019-04-21T07:00:43.223Z,32928.00
2019-04-21T07:03:45.901Z,34560.00
2019-04-21T07:05:34.638Z,34656.00
2019-04-21T07:06:36.287Z,35136.00
2019-04-21T07:09:25.412Z,35680.00
2019-04-21T07:11:15.312Z,36416.00
2019-04-21T07:12:12.578Z,36512.00
2019-04-21T07:15:03.311Z,37088.00
2019-04-21T07:17:06.792Z,37536.00
2019-04-21T07:17:59.444Z,37664.00
2019-04-21T07:19:55.959Z,38144.00
2019-04-21T07:20:54.929Z,38688.00
2019-04-21T07:22:50.563Z,38912.00
2019-04-21T07:23:47.295Z,39008.00
2019-04-21T07:25:38.802Z,39424.00
2019-04-21T07:26:36.872Z,39200.00
2019-04-21T07:28:36.257Z,39392.00
2019-04-21T07:29:34.768Z,39552.00
2019-04-21T07:31:25.422Z,39552.00
2019-04-21T07:32:22.311Z,39616.00
2019-04-21T07:34:21.466Z,39328.00
2019-04-21T07:35:17.469Z,39488.00
2019-04-21T07:37:06.172Z,39680.00
2019-04-21T07:38:05.616Z,39808.00
2019-04-21T07:40:03.717Z,39872.00
2019-04-21T07:40:53.411Z,39968.00
2019-04-21T07:42:49.818Z,40352.00
2019-04-21T07:43:49.036Z,40512.00
2019-04-21T07:45:40.121Z,40448.00
2019-04-21T07:46:38.499Z,40640.00
2019-04-21T07:48:37.594Z,40800.00
2019-04-21T07:49:41.573Z,41280.00
2019-04-21T07:51:33.995Z,41376.00
2019-04-21T07:52:35.045Z,41280.00
2019-04-21T07:54:33.718Z,41152.00
2019-04-21T07:57:11.585Z,41312.00
2019-04-21T07:58:14.918Z,41408.00
2019-04-21T08:01:12.457Z,41344.00
2019-04-21T08:03:00.527Z,41248.00
2019-04-21T08:03:59.433Z,41152.00
2019-04-21T08:05:58.861Z,40832.00
2019-04-21T08:06:53.654Z,40800.00
2019-04-21T08:08:49.096Z,40768.00
2019-04-21T08:09:47.170Z,40352.00
2019-04-21T08:11:36.776Z,40064.00
2019-04-21T08:12:37.943Z,39776.00
2019-04-21T08:14:36.915Z,38848.00
2019-04-21T08:15:44.637Z,38048.00
2019-04-21T08:17:24.138Z,36928.00
2019-04-21T08:18:26.995Z,35392.00
2019-04-21T08:20:15.686Z,31200.00
2019-04-21T08:21:15.282Z,25920.00
2019-04-21T08:23:13.450Z,16352.00
2019-04-21T08:24:10.512Z,13712.00
2019-04-21T08:27:05.043Z,9704.00
2019-04-21T08:29:06.499Z,8224.00
2019-04-21T08:29:51.591Z,7620.00
2019-04-21T08:34:48.532Z,6176.00
2019-04-21T08:37:31.414Z,6092.00
2019-04-21T08:38:38.850Z,6076.00
2019-04-21T08:40:31.553Z,6056.00
2019-04-21T08:41:27.759Z,6044.00
2019-04-21T08:43:21.801Z,6024.00
2019-04-21T08:44:20.942Z,6000.00
2019-04-21T08:46:16.942Z,5968.00
2019-04-21T08:47:12.904Z,5972.00
2019-04-21T08:49:02.590Z,5944.00
2019-04-21T08:50:02.151Z,5932.00
2019-04-21T08:52:05.171Z,5916.00
2019-04-21T08:52:56.628Z,5900.00
2019-04-21T08:54:52.131Z,5884.00
2019-04-21T08:55:49.526Z,5892.00
2019-04-21T08:57:50.841Z,5892.00
2019-04-21T08:58:47.811Z,5876.00
2019-04-21T09:00:36.874Z,5840.00
2019-04-21T09:01:36.846Z,5832.00
2019-04-21T09:03:32.969Z,5800.00
2019-04-21T09:04:24.461Z,5772.00
2019-04-21T09:06:29.097Z,5752.00
2019-04-21T09:07:21.329Z,5744.00
2019-04-21T09:09:10.970Z,5724.00
2019-04-21T09:10:09.695Z,5724.00
2019-04-21T09:12:08.686Z,5700.00
2019-04-21T09:13:01.395Z,5668.00
2019-04-21T09:14:58.062Z,5636.00
2019-04-21T09:15:56.849Z,5624.00
2019-04-21T09:17:41.015Z,5604.00
2019-04-21T09:18:43.344Z,5592.00
2019-04-21T09:20:47.428Z,5592.00
2019-04-21T09:21:46.947Z,5584.00
2019-04-21T09:23:36.391Z,5532.00
2019-04-21T09:24:33.071Z,5512.00
2019-04-21T09:26:28.348Z,5508.00
2019-04-21T09:27:20.752Z,5496.00
2019-04-21T09:29:13.637Z,5472.00
2019-04-21T09:30:03.508Z,5456.00
2019-04-21T09:31:55.847Z,5420.00
2019-04-21T09:32:54.846Z,5388.00
2019-04-21T09:34:47.299Z,5368.00
2019-04-21T09:35:50.117Z,5344.00
2019-04-21T09:37:44.398Z,5312.00
2019-04-21T09:38:41.885Z,5292.00
2019-04-21T09:40:36.244Z,5280.00
2019-04-21T09:41:34.258Z,5276.00
2019-04-21T09:43:30.777Z,5284.00
2019-04-21T09:44:30.204Z,5292.00
2019-04-21T09:46:16.161Z,5268.00
2019-04-21T09:47:19.020Z,5256.00
2019-04-21T09:49:12.514Z,5212.00
2019-04-21T09:50:08.515Z,5180.00
2019-04-21T09:52:02.081Z,5128.00
2019-04-21T09:53:12.916Z,5092.00
2019-04-21T09:55:03.995Z,5012.00
2019-04-21T09:55:58.117Z,5016.00
2019-04-21T09:57:52.142Z,5020.00
2019-04-21T09:58:49.741Z,5004.00
2019-04-21T10:00:47.628Z,4996.00
2019-04-21T10:01:52.658Z,5016.00
2019-04-21T10:03:39.659Z,5044.00
2019-04-21T10:04:31.136Z,5024.00
2019-04-21T10:06:23.760Z,4976.00
2019-04-21T10:07:28.194Z,4948.00
2019-04-21T10:09:19.441Z,4944.00
2019-04-21T10:10:17.142Z,4964.00
2019-04-21T10:12:09.721Z,5004.00
2019-04-21T10:13:08.555Z,4996.00
2019-04-21T10:15:01.889Z,4952.00
2019-04-21T10:16:01.138Z,4908.00
2019-04-21T10:17:54.082Z,4856.00
2019-04-21T10:18:54.711Z,4844.00
2019-04-21T10:20:46.984Z,4832.00
2019-04-21T10:21:47.846Z,4828.00
2019-04-21T10:23:39.607Z,4804.00
2019-04-21T10:24:40.495Z,4800.00
2019-04-21T10:26:33.305Z,4788.00
2019-04-21T10:27:32.056Z,4768.00
2019-04-21T10:29:27.881Z,4684.00
2019-04-21T10:30:24.784Z,4644.00
2019-04-21T10:32:21.351Z,4592.00
2019-04-21T10:33:18.479Z,4572.00
2019-04-21T10:35:10.911Z,4552.00
2019-04-21T10:36:10.958Z,4552.00
2019-04-21T10:38:14.885Z,4568.00
2019-04-21T10:39:02.473Z,4576.00
2019-04-21T10:40:55.099Z,4568.00
2019-04-21T10:41:55.268Z,4548.00
2019-04-21T10:43:49.240Z,4496.00
2019-04-21T10:44:47.563Z,4480.00
2019-04-21T10:46:40.604Z,4436.00
2019-04-21T10:47:41.052Z,4428.00
2019-04-21T10:49:32.831Z,4408.00
2019-04-21T10:50:32.736Z,4400.00
2019-04-21T10:52:27.904Z,4388.00
2019-04-21T10:53:25.347Z,4380.00
2019-04-21T10:55:36.748Z,4348.00
2019-04-21T10:56:26.961Z,4340.00
2019-04-21T10:58:11.029Z,4316.00
2019-04-21T10:59:12.015Z,4328.00
2019-04-21T11:01:04.185Z,4352.00
2019-04-21T11:02:03.298Z,4332.00
2019-04-21T11:03:55.915Z,4308.00
2019-04-21T11:04:56.667Z,4284.00
2019-04-21T11:06:48.646Z,4276.00
2019-04-21T11:08:00.894Z,4264.00
2019-04-21T11:09:42.309Z,4228.00
2019-04-21T11:10:41.259Z,4212.00
2019-04-21T11:12:36.488Z,4200.00
2019-04-21T11:13:34.729Z,4188.00
2019-04-21T11:15:27.438Z,4152.00
2019-04-21T11:16:26.949Z,4148.00
2019-04-21T11:18:19.829Z,4152.00
2019-04-21T11:19:19.931Z,4140.00
2019-04-21T11:21:13.100Z,4140.00
2019-04-21T11:22:12.648Z,4144.00
2019-04-21T11:24:04.337Z,4160.00
2019-04-21T11:25:04.920Z,4168.00
2019-04-21T11:26:58.151Z,4168.00
2019-04-21T11:27:56.882Z,4176.00
2019-04-21T11:29:49.618Z,4176.00
2019-04-21T11:30:50.879Z,4172.00
2019-04-21T11:32:44.954Z,4184.00
2019-04-21T11:33:43.047Z,4184.00
2019-04-21T11:35:35.272Z,4168.00
2019-04-21T11:36:35.291Z,4148.00
2019-04-21T11:38:30.493Z,4132.00
2019-04-21T11:39:37.595Z,4120.00
2019-04-21T11:41:21.528Z,4112.00
2019-04-21T11:42:20.021Z,4100.00
2019-04-21T11:44:14.015Z,4104.00
2019-04-21T11:45:12.647Z,4112.00
2019-04-21T11:47:06.588Z,4120.00
2019-04-21T11:48:06.132Z,4112.00
2019-04-21T11:49:59.036Z,4100.00
2019-04-21T11:50:59.150Z,4092.00
2019-04-21T11:52:50.534Z,4084.00
2019-04-21T11:53:50.768Z,4076.00
2019-04-21T11:55:46.684Z,4084.00
2019-04-21T11:56:43.320Z,4084.00
2019-04-21T11:58:36.091Z,4076.00
2019-04-21T11:59:35.779Z,4060.00
2019-04-21T12:01:29.625Z,4068.00
2019-04-21T12:02:28.276Z,4076.00
2019-04-21T12:04:21.336Z,4092.00
2019-04-21T12:05:21.391Z,4100.00
2019-04-21T12:07:13.582Z,4088.00
2019-04-21T12:08:24.518Z,4080.00
2019-04-21T12:10:06.196Z,4048.00
2019-04-21T12:11:07.296Z,4024.00
2019-04-21T12:12:59.246Z,4012.00
2019-04-21T12:13:58.668Z,3992.00
2019-04-21T12:15:52.713Z,3992.00
2019-04-21T12:16:51.245Z,3972.00
2019-04-21T12:18:45.140Z,3952.00
2019-04-21T12:19:44.741Z,3948.00
2019-04-21T12:21:50.498Z,3928.00
2019-04-21T12:22:37.397Z,3904.00
2019-04-21T12:24:31.282Z,3872.00
2019-04-21T12:25:29.233Z,3828.00
2019-04-21T12:27:22.269Z,3792.00
2019-04-21T12:28:21.878Z,3784.00
2019-04-21T12:30:15.537Z,3784.00
2019-04-21T12:31:14.211Z,3784.00
2019-04-21T12:33:07.731Z,3780.00
2019-04-21T12:34:07.854Z,3772.00
2019-04-21T12:35:59.978Z,3776.00
2019-04-21T12:36:59.366Z,3756.00
2019-04-21T12:38:57.726Z,3752.00
2019-04-21T12:39:52.551Z,3756.00
2019-04-21T12:41:44.696Z,3760.00
2019-04-21T12:42:45.504Z,3744.00
2019-04-21T12:44:37.297Z,3712.00
2019-04-21T12:45:37.831Z,3696.00
2019-04-21T12:47:30.217Z,3672.00
2019-04-21T12:48:29.769Z,3652.00
2019-04-21T12:50:23.608Z,3680.00
2019-04-21T12:51:23.836Z,3700.00
2019-04-21T12:53:15.996Z,3740.00
2019-04-21T12:54:15.475Z,3760.00
2019-04-21T12:56:07.600Z,3784.00
2019-04-21T12:57:07.714Z,3788.00
2019-04-21T12:59:01.463Z,3808.00
2019-04-21T13:00:00.493Z,3812.00
2019-04-21T13:01:52.862Z,3816.00
2019-04-21T13:02:53.889Z,3808.00
2019-04-21T13:04:46.126Z,3820.00
2019-04-21T13:05:45.395Z,3812.00
2019-04-21T13:07:37.920Z,3804.00
2019-04-21T13:08:45.629Z,3796.00
2019-04-21T13:10:30.676Z,3804.00
2019-04-21T13:11:30.964Z,3812.00
2019-04-21T13:13:23.930Z,3812.00
2019-04-21T13:14:24.047Z,3828.00
2019-04-21T13:16:15.722Z,3836.00
2019-04-21T13:17:15.610Z,3820.00
2019-04-21T13:19:09.366Z,3796.00
2019-04-21T13:20:09.455Z,3788.00
2019-04-21T13:22:01.589Z,3784.00
2019-04-21T13:23:01.818Z,3784.00
2019-04-21T13:24:53.893Z,3788.00
2019-04-21T13:25:54.118Z,3780.00
2019-04-21T13:27:47.259Z,3768.00
2019-04-21T13:28:45.938Z,3772.00
2019-04-21T13:30:38.636Z,3764.00
2019-04-21T13:31:38.587Z,3756.00
2019-04-21T13:33:31.316Z,3748.00
2019-04-21T13:34:31.787Z,3756.00
2019-04-21T13:36:23.804Z,3740.00
2019-04-21T13:37:23.776Z,3744.00
2019-04-21T13:39:44.686Z,3744.00
2019-04-21T13:40:35.955Z,3740.00
2019-04-21T13:42:17.467Z,3764.00
2019-04-21T13:43:10.750Z,3768.00
2019-04-21T13:45:03.007Z,3756.00
2019-04-21T13:46:01.813Z,3740.00
2019-04-21T13:47:54.731Z,3728.00
2019-04-21T13:48:54.823Z,3720.00
2019-04-21T13:50:49.081Z,3704.00
2019-04-21T13:51:48.035Z,3696.00
2019-04-21T13:53:40.161Z,3700.00
2019-04-21T13:54:40.077Z,3676.00
2019-04-21T13:56:34.337Z,3676.00
2019-04-21T13:57:32.631Z,3668.00
2019-04-21T13:59:26.437Z,3668.00
2019-04-21T14:00:25.316Z,3660.00
2019-04-21T14:02:18.538Z,3644.00
2019-04-21T14:03:21.290Z,3636.00
2019-04-21T14:05:13.405Z,3640.00
2019-04-21T14:06:10.448Z,3628.00
2019-04-21T14:08:03.277Z,3644.00
2019-04-21T14:09:03.192Z,3620.00
2019-04-21T14:10:55.776Z,3576.00
2019-04-21T14:11:56.977Z,3568.00
2019-04-21T14:13:48.442Z,3544.00
2019-04-21T14:14:48.359Z,3552.00
2019-04-21T14:16:42.206Z,3552.00
2019-04-21T14:17:40.874Z,3548.00
2019-04-21T14:19:33.583Z,3548.00
2019-04-21T14:20:33.457Z,3544.00
2019-04-21T14:22:26.425Z,3544.00
2019-04-21T14:23:33.616Z,3528.00
2019-04-21T14:25:19.633Z,3508.00
2019-04-21T14:26:20.296Z,3516.00
2019-04-21T14:28:12.282Z,3512.00
2019-04-21T14:29:12.933Z,3524.00
2019-04-21T14:31:04.447Z,3544.00
2019-04-21T14:32:04.375Z,3528.00
2019-04-21T14:33:58.295Z,3508.00
2019-04-21T14:34:56.921Z,3508.00
2019-04-21T14:36:50.827Z,3516.00
2019-04-21T14:37:50.663Z,3508.00
2019-04-21T14:39:52.817Z,3512.00
2019-04-21T14:40:42.099Z,3504.00
2019-04-21T14:42:36.060Z,3504.00
2019-04-21T14:43:34.705Z,3496.00
2019-04-21T14:45:28.233Z,3480.00
2019-04-21T14:46:27.293Z,3476.00
2019-04-21T14:48:21.209Z,3460.00
2019-04-21T14:49:21.278Z,3464.00
2019-04-21T14:51:13.194Z,3460.00
2019-04-21T14:52:12.928Z,3448.00
2019-04-21T14:54:05.933Z,3452.00
2019-04-21T14:55:05.027Z,3444.00
2019-04-21T14:56:57.747Z,3452.00
2019-04-21T14:57:58.981Z,3440.00
2019-04-21T14:59:51.098Z,3452.00
2019-04-21T15:00:51.060Z,3452.00
2019-04-21T15:02:43.567Z,3460.00
2019-04-21T15:03:43.721Z,3464.00
2019-04-21T15:05:35.621Z,3464.00
2019-04-21T15:06:35.478Z,3464.00
2019-04-21T15:08:28.971Z,3452.00
2019-04-21T15:09:29.256Z,3444.00
2019-04-21T15:11:21.940Z,3428.00
2019-04-21T15:12:20.645Z,3424.00
2019-04-21T15:14:13.817Z,3416.00
2019-04-21T15:15:13.958Z,3408.00
2019-04-21T15:17:07.077Z,3392.00
2019-04-21T15:18:05.825Z,3392.00
2019-04-21T15:20:04.443Z,3376.00
2019-04-21T15:20:59.367Z,3376.00
2019-04-21T15:22:52.441Z,3368.00
2019-04-21T15:23:50.999Z,3368.00
2019-04-21T15:25:43.985Z,3376.00
2019-04-21T15:26:44.291Z,3372.00
2019-04-21T15:28:37.877Z,3368.00
2019-04-21T15:29:36.170Z,3368.00
2019-04-21T15:31:33.885Z,3348.00
2019-04-21T15:32:28.752Z,3348.00
2019-04-21T15:34:23.959Z,3332.00
2019-04-21T15:35:21.447Z,3300.00
2019-04-21T15:37:14.050Z,3256.00
2019-04-21T15:38:14.038Z,3244.00
2019-04-21T15:40:18.132Z,3216.00
2019-04-21T15:41:10.472Z,3208.00
2019-04-21T15:43:00.149Z,3204.00
2019-04-21T15:44:01.266Z,3196.00
2019-04-21T15:45:52.894Z,3188.00
2019-04-21T15:46:52.269Z,3192.00
2019-04-21T15:48:44.756Z,3176.00
2019-04-21T15:49:51.750Z,3168.00
2019-04-21T15:51:38.027Z,3152.00
2019-04-21T15:52:37.860Z,3148.00
2019-04-21T15:54:29.556Z,3492.00
2019-04-21T15:55:30.757Z,3532.00
2019-04-21T15:57:22.158Z,3664.00
2019-04-21T15:58:22.901Z,3736.00
2019-04-21T16:00:14.722Z,3692.00
2019-04-21T16:01:14.625Z,3572.00
2019-04-21T16:03:08.650Z,3404.00
2019-04-21T16:04:07.998Z,3348.00
2019-04-21T16:06:01.300Z,3116.00
2019-04-21T16:06:59.799Z,3052.00
2019-04-21T16:08:54.251Z,3008.00
2019-04-21T16:09:52.528Z,2988.00
2019-04-21T16:11:46.123Z,2964.00
2019-04-21T16:12:45.637Z,2952.00
2019-04-21T16:14:38.642Z,2924.00
2019-04-21T16:15:38.652Z,2912.00
2019-04-21T16:17:30.427Z,2880.00
2019-04-21T16:18:30.159Z,2868.00
2019-04-21T16:20:24.062Z,2844.00
2019-04-21T16:21:24.228Z,2824.00
2019-04-21T16:23:15.956Z,2800.00
2019-04-21T16:24:16.335Z,2780.00
2019-04-21T16:26:08.798Z,2768.00
2019-04-21T16:27:10.611Z,2756.00
2019-04-21T16:29:01.143Z,2740.00
2019-04-21T16:30:01.946Z,2728.00
2019-04-21T16:31:53.711Z,2716.00
2019-04-21T16:32:54.415Z,2704.00
2019-04-21T16:34:53.596Z,2684.00
2019-04-21T16:35:47.502Z,2664.00
2019-04-21T16:37:39.518Z,2640.00
2019-04-21T16:38:39.681Z,2624.00
2019-04-21T16:40:43.271Z,2596.00
2019-04-21T16:41:32.087Z,2580.00
2019-04-21T16:43:24.995Z,2556.00
2019-04-21T16:44:25.311Z,2544.00
2019-04-21T16:46:17.893Z,2516.00
2019-04-21T16:47:17.260Z,2504.00
2019-04-21T16:49:09.666Z,2484.00
2019-04-21T16:50:09.824Z,2468.00
2019-04-21T16:52:02.335Z,2440.00
2019-04-21T16:53:01.827Z,2432.00
2019-04-21T16:54:55.800Z,2404.00
2019-04-21T16:55:55.142Z,2392.00
2019-04-21T16:57:59.443Z,2368.00
2019-04-21T16:58:48.307Z,2356.00
2019-04-21T17:00:46.024Z,2324.00
2019-04-21T17:01:40.662Z,2308.00
2019-04-21T17:03:32.720Z,2276.00
2019-04-21T17:04:32.242Z,2260.00
2019-04-21T17:06:25.030Z,2228.00
2019-04-21T17:07:26.156Z,2208.00
2019-04-21T17:09:18.753Z,2180.00
2019-04-21T17:10:17.395Z,2164.00
2019-04-21T17:12:14.085Z,2260.00
2019-04-21T17:13:11.318Z,2288.00
2019-04-21T17:15:21.427Z,2592.00
2019-04-21T17:16:31.965Z,2892.00
2019-04-21T17:18:15.067Z,3044.00
2019-04-21T17:19:06.575Z,3140.00
2019-04-21T17:20:53.803Z,3052.00
2019-04-21T17:21:49.771Z,2744.00
2019-04-21T17:23:41.080Z,1972.00
2019-04-21T17:24:42.367Z,1936.00
2019-04-21T17:26:36.206Z,1880.00
2019-04-21T17:27:33.566Z,1844.00
2019-04-21T17:29:26.233Z,1804.00
2019-04-21T17:30:26.492Z,1780.00
2019-04-21T17:32:20.326Z,1740.00
2019-04-21T17:33:21.646Z,1708.00
2019-04-21T17:35:12.142Z,1656.00
2019-04-21T17:36:11.484Z,1632.00
2019-04-21T17:38:04.044Z,1592.00
2019-04-21T17:39:04.775Z,1568.00
2019-04-21T17:41:09.430Z,1532.00
2019-04-21T17:42:11.785Z,1508.00
2019-04-21T17:43:49.941Z,1464.00
2019-04-21T17:44:49.058Z,1440.00
2019-04-21T17:46:48.585Z,1388.00
2019-04-21T17:47:49.895Z,1364.00
2019-04-21T17:49:34.857Z,1312.00
2019-04-21T17:50:35.472Z,1288.00
2019-04-21T17:52:36.602Z,1236.00
2019-04-21T17:53:35.766Z,1208.00
2019-04-21T17:55:26.197Z,1152.00
2019-04-21T17:56:42.755Z,1124.00
2019-04-21T17:58:27.982Z,1072.00
2019-04-21T17:59:44.788Z,1044.00
2019-04-21T18:01:26.525Z,992.00
2019-04-21T18:02:31.071Z,968.00
2019-04-21T18:04:18.805Z,920.00
2019-04-21T18:05:23.761Z,888.00
2019-04-21T18:07:02.364Z,836.00
2019-04-21T18:08:11.074Z,812.00
2019-04-21T18:10:12.144Z,760.00
2019-04-21T18:10:56.547Z,736.00
2019-04-21T18:12:45.757Z,688.00
2019-04-21T18:13:34.964Z,656.00
2019-04-21T18:15:42.785Z,608.00
2019-04-21T18:16:35.880Z,580.00
2019-04-21T18:18:20.990Z,532.00
2019-04-21T18:19:26.776Z,504.00
2019-04-21T18:21:14.518Z,460.00
2019-04-21T18:22:14.634Z,432.00
2019-04-21T18:24:14.653Z,388.00
2019-04-21T18:25:11.809Z,364.00
2019-04-21T18:27:02.494Z,328.00
2019-04-21T18:27:58.925Z,304.00
2019-04-21T18:29:52.517Z,268.00
2019-04-21T18:30:52.317Z,248.00
2019-04-21T18:32:44.273Z,216.00
2019-04-21T18:33:45.754Z,200.00
2019-04-21T18:35:43.046Z,172.00
2019-04-21T18:36:39.548Z,156.00
2019-04-21T18:38:44.223Z,132.00
2019-04-21T18:39:45.330Z,116.00
2019-04-21T18:41:21.946Z,96.00
2019-04-21T18:42:37.494Z,84.00
2019-04-21T18:44:43.266Z,68.00
2019-04-21T18:45:55.413Z,60.00
2019-04-21T18:47:28.984Z,52.00
2019-04-21T18:48:18.974Z,44.00
2019-04-21T18:50:01.841Z,32.00
2019-04-21T18:51:06.333Z,32.00
2019-04-21T18:53:05.000Z,20.00
2019-04-21T18:54:14.947Z,16.00
2019-04-21T18:55:49.622Z,16.00
2019-04-21T18:56:59.132Z,12.00
2019-04-21T18:58:38.299Z,12.00
2019-04-21T18:59:40.268Z,8.00
2019-04-21T19:01:33.317Z,4.00
2019-04-21T19:02:38.462Z,4.00
2019-04-21T19:04:28.563Z,4.00
2019-04-21T19:05:26.333Z,4.00
2019-04-21T19:07:27.556Z,4.00
2019-04-21T19:08:31.344Z,0.00
2019-04-21T19:10:26.698Z,4.00
2019-04-21T19:11:31.263Z,4.00
2019-04-21T19:13:41.904Z,0.00
2019-04-21T19:16:31.342Z,0.00
2019-04-21T19:17:38.171Z,0.00
2019-04-21T19:19:31.526Z,0.00
2019-04-21T19:20:18.282Z,0.00
2019-04-21T19:22:00.674Z,0.00
2019-04-21T19:22:52.438Z,0.00
2019-04-21T19:24:54.920Z,0.00
2019-04-21T19:25:55.161Z,0.00
2019-04-21T19:27:45.168Z,0.00
2019-04-21T19:28:50.216Z,0.00
2019-04-21T19:31:38.266Z,0.00
2019-04-21T19:33:27.425Z,0.00
2019-04-21T19:34:19.760Z,0.00
2019-04-21T19:36:03.470Z,0.00
2019-04-21T19:37:10.829Z,0.00
2019-04-21T19:39:06.277Z,0.00
2019-04-21T19:40:09.556Z,0.00
2019-04-21T19:42:00.405Z,0.00
2019-04-21T19:43:00.384Z,0.00
2019-04-21T19:44:56.796Z,0.00
2019-04-21T19:45:54.126Z,0.00
2019-04-21T19:47:52.770Z,0.00
2019-04-21T19:48:55.287Z,0.00
2019-04-21T19:50:47.067Z,0.00
2019-04-21T19:51:37.903Z,0.00
2019-04-21T19:53:32.993Z,0.00
2019-04-21T19:54:25.086Z,0.00
2019-04-21T19:56:12.038Z,0.00
2019-04-21T19:57:11.248Z,0.00
2019-04-21T19:59:03.675Z,0.00
2019-04-21T20:00:06.045Z,0.00
2019-04-21T20:01:58.234Z,0.00
2019-04-21T20:02:56.718Z,0.00
2019-04-21T20:04:57.654Z,0.00
2019-04-21T20:05:58.137Z,0.00
2019-04-21T20:08:01.650Z,0.00
2019-04-21T20:08:58.194Z,0.00
2019-04-21T20:10:55.034Z,0.00
2019-04-21T20:11:52.546Z,0.00
2019-04-21T20:14:30.768Z,0.00
2019-04-21T20:16:41.302Z,0.00
2019-04-21T20:17:40.807Z,0.00
2019-04-21T20:19:13.882Z,0.00
2019-04-21T20:20:13.271Z,0.00
2019-04-21T20:22:05.327Z,0.00
2019-04-21T20:23:08.881Z,0.00
2019-04-21T20:25:04.550Z,0.00
2019-04-21T20:26:02.307Z,0.00
2019-04-21T20:28:00.804Z,0.00
2019-04-21T20:29:02.447Z,0.00
2019-04-21T20:31:03.746Z,0.00
2019-04-21T20:31:54.189Z,0.00
2019-04-21T20:34:56.191Z,0.00
2019-04-21T20:36:48.911Z,0.00
2019-04-21T20:37:41.889Z,0.00
2019-04-21T20:39:26.573Z,0.00
2019-04-21T20:40:30.834Z,0.00
2019-04-21T20:42:25.337Z,0.00
2019-04-21T20:43:32.120Z,0.00
2019-04-21T20:46:26.910Z,0.00
2019-04-21T20:48:09.402Z,0.00
2019-04-21T20:49:06.970Z,0.00
2019-04-21T20:51:14.568Z,0.00
2019-04-21T20:52:09.828Z,0.00
2019-04-21T20:53:53.680Z,0.00
2019-04-21T20:54:59.023Z,0.00
2019-04-21T20:56:58.402Z,0.00
2019-04-21T20:57:48.978Z,0.00
2019-04-21T20:59:42.939Z,0.00
2019-04-21T21:00:56.147Z,0.00
2019-04-21T21:02:46.910Z,0.00
2019-04-21T21:03:42.249Z,0.00
2019-04-21T21:05:27.329Z,0.00
2019-04-21T21:06:26.234Z,0.00
2019-04-21T21:08:30.910Z,0.00
2019-04-21T21:09:18.210Z,0.00
2019-04-21T21:11:20.889Z,0.00
2019-04-21T21:12:34.277Z,0.00
2019-04-21T21:15:00.101Z,0.00
2019-04-21T21:17:03.663Z,0.00
2019-04-21T21:18:06.284Z,0.00
2019-04-21T21:20:02.686Z,0.00
2019-04-21T21:20:55.317Z,0.00
2019-04-21T21:22:42.383Z,0.00
2019-04-21T21:23:47.753Z,0.00
2019-04-21T21:25:49.705Z,0.00
2019-04-21T21:26:36.743Z,0.00
2019-04-21T21:28:26.718Z,0.00
2019-04-21T21:29:45.775Z,0.00
2019-04-21T21:31:25.285Z,0.00
2019-04-21T21:32:27.320Z,0.00
2019-04-21T21:34:25.782Z,0.00
2019-04-21T21:35:13.464Z,0.00
2019-04-21T21:37:21.216Z,0.00
2019-04-21T21:38:13.225Z,0.00
2019-04-21T21:40:04.350Z,0.00
2019-04-21T21:40:53.056Z,0.00
2019-04-21T21:42:43.439Z,0.00
2019-04-21T21:43:39.344Z,0.00
2019-04-21T21:45:39.392Z,0.00
2019-04-21T21:46:45.612Z,0.00
2019-04-21T21:48:38.259Z,0.00
2019-04-21T21:49:36.889Z,0.00
2019-04-21T21:51:26.944Z,0.00
2019-04-21T21:52:25.906Z,0.00
2019-04-21T21:54:09.628Z,0.00
2019-04-21T21:55:09.717Z,0.00
2019-04-21T21:57:01.044Z,0.00
2019-04-21T21:58:03.470Z,0.00
2019-04-21T21:59:58.923Z,0.00
